Time;durP1;ratioP1;P1;durP2;ratioP2;P2;SDS_P1;SDS_P2;PMS_P1;PMS_P2;Temp;Humidity;BMP_temperature;BMP_pressure;BME280_temperature;BME280_humidity;BME280_pressure;Samples;Min_cycle;Max_cycle;Signal;HPM_P1;HPM_P2
2022/07/17 00:01:37;;;;;;;2.70;0.80;;;;;;;;;;5043955;28;20826;-63
2022/07/17 00:04:04;;;;;;;1.02;0.82;;;;;;;;;;5043947;28;20666;-63
2022/07/17 00:06:31;;;;;;;1.50;0.90;;;;;;;;;;5043942;28;20780;-63
2022/07/17 00:08:58;;;;;;;1.10;0.68;;;;;;;;;;5043991;28;20284;-63
2022/07/17 00:11:26;;;;;;;0.90;0.77;;;;;;;;;;5043456;28;20211;-63
2022/07/17 00:13:54;;;;;;;2.03;0.90;;;;;;;;;;5044272;28;20307;-63
2022/07/17 00:16:22;;;;;;;1.83;0.80;;;;;;;;;;5044262;28;20291;-62
2022/07/17 00:18:49;;;;;;;0.90;0.90;;;;;;;;;;5043672;28;20215;-63
2022/07/17 00:21:16;;;;;;;1.00;0.90;;;;;;;;;;5053519;28;20207;-63
2022/07/17 00:23:43;;;;;;;4.57;2.40;;;;;;;;;;5049351;28;20216;-63
2022/07/17 00:26:11;;;;;;;2.58;2.38;;;;;;;;;;5043911;28;20394;-63
2022/07/17 00:28:38;;;;;;;1.95;1.50;;;;;;;;;;5043755;28;20214;-63
2022/07/17 00:31:05;;;;;;;3.67;1.48;;;;;;;;;;5044143;28;20211;-63
2022/07/17 00:33:33;;;;;;;2.78;1.17;;;;;;;;;;5043744;28;20211;-63
2022/07/17 00:36:01;;;;;;;1.70;0.80;;;;;;;;;;5043990;28;20206;-63
2022/07/17 00:38:28;;;;;;;0.90;0.80;;;;;;;;;;5043847;28;20491;-63
2022/07/17 00:40:56;;;;;;;1.15;1.05;;;;;;;;;;5044181;28;20302;-63
2022/07/17 00:43:23;;;;;;;1.52;0.90;;;;;;;;;;5045729;28;20203;-63
2022/07/17 00:45:55;;;;;;;1.08;0.88;;;;;;;;;;5047610;28;20330;-63
2022/07/17 00:48:23;;;;;;;1.92;1.00;;;;;;;;;;5047418;28;20230;-63
2022/07/17 00:50:51;;;;;;;1.17;1.10;;;;;;;;;;5047627;28;20622;-63
2022/07/17 00:53:18;;;;;;;0.80;0.80;;;;;;;;;;5047273;28;20756;-63
2022/07/17 00:55:47;;;;;;;1.15;0.80;;;;;;;;;;5047387;28;20300;-63
2022/07/17 00:58:18;;;;;;;4.57;1.00;;;;;;;;;;5047198;28;20303;-63
2022/07/17 01:00:45;;;;;;;1.20;0.90;;;;;;;;;;5047589;28;20207;-63
2022/07/17 01:03:12;;;;;;;0.85;0.80;;;;;;;;;;5047186;28;20901;-63
2022/07/17 01:05:39;;;;;;;0.85;0.85;;;;;;;;;;5047310;28;20293;-63
2022/07/17 01:08:08;;;;;;;0.70;0.70;;;;;;;;;;5046846;28;20203;-63
2022/07/17 01:10:35;;;;;;;1.95;1.08;;;;;;;;;;5047083;28;20211;-63
2022/07/17 01:13:02;;;;;;;1.85;1.20;;;;;;;;;;5047338;28;20211;-63
2022/07/17 01:15:29;;;;;;;1.20;1.10;;;;;;;;;;5045744;28;20844;-63
2022/07/17 01:17:57;;;;;;;2.63;0.93;;;;;;;;;;5050217;28;20207;-63
2022/07/17 01:20:24;;;;;;;1.90;0.82;;;;;;;;;;5052535;28;20269;-63
2022/07/17 01:22:52;;;;;;;0.90;0.90;;;;;;;;;;5051058;28;20204;-63
2022/07/17 01:25:21;;;;;;;0.85;0.85;;;;;;;;;;5051295;28;20281;-63
2022/07/17 01:27:48;;;;;;;0.77;0.77;;;;;;;;;;5051027;28;20265;-63
2022/07/17 01:30:15;;;;;;;2.60;1.10;;;;;;;;;;5050720;28;20247;-62
2022/07/17 01:32:43;;;;;;;0.90;0.90;;;;;;;;;;5050157;28;20215;-63
2022/07/17 01:35:11;;;;;;;0.95;0.80;;;;;;;;;;5043897;28;20196;-62
2022/07/17 01:37:38;;;;;;;0.80;0.80;;;;;;;;;;5043255;28;20208;-62
2022/07/17 01:40:08;;;;;;;1.10;0.73;;;;;;;;;;5040281;28;20618;-63
2022/07/17 01:42:35;;;;;;;1.50;0.95;;;;;;;;;;5044621;28;20200;-63
2022/07/17 01:45:02;;;;;;;1.40;0.90;;;;;;;;;;5041743;28;20203;-63
2022/07/17 01:47:29;;;;;;;2.53;0.90;;;;;;;;;;5048563;28;20242;-63
2022/07/17 01:49:58;;;;;;;4.90;0.90;;;;;;;;;;5050254;28;20212;-63
2022/07/17 01:52:25;;;;;;;0.88;0.88;;;;;;;;;;5050014;28;20254;-63
2022/07/17 01:54:53;;;;;;;1.27;0.90;;;;;;;;;;5049284;28;20266;-63
2022/07/17 01:57:22;;;;;;;2.00;0.95;;;;;;;;;;5045322;28;20291;-63
2022/07/17 01:59:49;;;;;;;2.15;0.93;;;;;;;;;;5044880;28;20220;-63
2022/07/17 02:02:16;;;;;;;1.60;1.08;;;;;;;;;;5050075;28;20616;-62
2022/07/17 02:04:43;;;;;;;0.95;0.80;;;;;;;;;;5050215;28;20210;-63
2022/07/17 02:07:11;;;;;;;0.70;0.70;;;;;;;;;;5049791;28;20222;-63
2022/07/17 02:09:38;;;;;;;2.92;0.90;;;;;;;;;;5049907;28;20250;-63
2022/07/17 02:12:05;;;;;;;0.90;0.90;;;;;;;;;;5049901;28;20204;-63
2022/07/17 02:14:34;;;;;;;1.60;0.80;;;;;;;;;;5049687;28;20207;-63
2022/07/17 02:17:01;;;;;;;0.75;0.75;;;;;;;;;;5050737;28;20253;-63
2022/07/17 02:19:28;;;;;;;3.20;1.02;;;;;;;;;;5050009;28;20277;-63
2022/07/17 02:21:55;;;;;;;1.50;1.00;;;;;;;;;;5051101;28;20212;-63
2022/07/17 02:24:22;;;;;;;1.85;0.90;;;;;;;;;;5050527;28;20204;-63
2022/07/17 02:26:49;;;;;;;0.80;0.80;;;;;;;;;;5049856;28;20224;-63
2022/07/17 02:29:16;;;;;;;0.90;0.90;;;;;;;;;;5049470;28;20572;-62
2022/07/17 02:31:44;;;;;;;1.00;1.00;;;;;;;;;;5039647;28;20226;-63
2022/07/17 02:34:11;;;;;;;2.10;1.13;;;;;;;;;;5050359;28;20269;-63
2022/07/17 02:36:38;;;;;;;1.33;1.13;;;;;;;;;;5050495;28;20207;-62
2022/07/17 02:39:06;;;;;;;1.02;0.90;;;;;;;;;;5050873;28;20669;-63
2022/07/17 02:41:33;;;;;;;0.98;0.98;;;;;;;;;;5050066;28;20204;-63
2022/07/17 02:44:00;;;;;;;1.10;1.05;;;;;;;;;;5050357;28;20211;-63
2022/07/17 02:46:27;;;;;;;1.23;1.00;;;;;;;;;;5049674;28;20243;-63
2022/07/17 02:48:55;;;;;;;1.00;0.98;;;;;;;;;;5049604;28;20292;-63
2022/07/17 02:51:22;;;;;;;0.75;0.70;;;;;;;;;;5050315;28;20261;-63
2022/07/17 02:53:49;;;;;;;1.17;0.75;;;;;;;;;;5050055;28;20200;-63
2022/07/17 02:56:16;;;;;;;1.25;1.15;;;;;;;;;;5050149;28;20913;-63
2022/07/17 02:58:43;;;;;;;1.02;1.02;;;;;;;;;;5049551;28;20257;-63
2022/07/17 03:01:10;;;;;;;1.00;1.00;;;;;;;;;;5050336;28;20208;-63
2022/07/17 03:03:37;;;;;;;1.13;0.80;;;;;;;;;;5048759;28;20635;-62
2022/07/17 03:06:06;;;;;;;1.25;1.00;;;;;;;;;;5047670;28;20220;-62
2022/07/17 03:08:33;;;;;;;1.63;0.98;;;;;;;;;;5049148;28;20196;-63
2022/07/17 03:11:00;;;;;;;4.65;1.25;;;;;;;;;;5049092;28;20212;-63
2022/07/17 03:13:27;;;;;;;1.17;1.08;;;;;;;;;;5049142;28;20207;-62
2022/07/17 03:15:54;;;;;;;4.25;1.10;;;;;;;;;;5048667;28;20207;-63
2022/07/17 03:18:21;;;;;;;0.83;0.80;;;;;;;;;;5048764;28;20207;-63
2022/07/17 03:20:48;;;;;;;1.15;1.13;;;;;;;;;;5048711;28;20210;-63
2022/07/17 03:23:16;;;;;;;2.05;1.10;;;;;;;;;;5049462;28;20208;-63
2022/07/17 03:25:43;;;;;;;1.37;1.37;;;;;;;;;;5048050;28;20223;-63
2022/07/17 03:28:10;;;;;;;1.67;0.70;;;;;;;;;;5037848;28;20649;-63
2022/07/17 03:30:37;;;;;;;0.90;0.80;;;;;;;;;;5048288;28;20246;-63
2022/07/17 03:33:04;;;;;;;0.97;0.97;;;;;;;;;;5047886;28;20192;-63
2022/07/17 03:35:31;;;;;;;2.17;0.93;;;;;;;;;;5048118;28;21007;-63
2022/07/17 03:37:58;;;;;;;1.00;0.95;;;;;;;;;;5049306;28;20690;-63
2022/07/17 03:40:27;;;;;;;1.60;0.70;;;;;;;;;;5049132;28;20208;-64
2022/07/17 03:42:54;;;;;;;1.03;0.90;;;;;;;;;;5049442;28;20204;-63
2022/07/17 03:45:21;;;;;;;0.60;0.60;;;;;;;;;;5049336;28;20196;-62
2022/07/17 03:47:48;;;;;;;3.30;0.77;;;;;;;;;;5048866;28;20235;-63
2022/07/17 03:50:15;;;;;;;1.80;0.90;;;;;;;;;;5048971;28;20273;-62
2022/07/17 03:52:42;;;;;;;0.90;0.90;;;;;;;;;;5048662;28;20909;-62
2022/07/17 03:55:09;;;;;;;1.40;0.80;;;;;;;;;;5049077;28;20570;-64
2022/07/17 03:57:38;;;;;;;0.90;0.70;;;;;;;;;;5049175;28;20605;-62
2022/07/17 04:00:05;;;;;;;1.90;1.17;;;;;;;;;;5048743;28;20261;-63
2022/07/17 04:02:32;;;;;;;0.90;0.70;;;;;;;;;;5048823;28;20299;-63
2022/07/17 04:04:59;;;;;;;1.05;0.70;;;;;;;;;;5047741;28;20233;-63
2022/07/17 04:07:30;;;;;;;2.22;0.95;;;;;;;;;;5048762;28;20819;-63
2022/07/17 04:09:58;;;;;;;1.05;0.93;;;;;;;;;;5049312;28;20694;-63
2022/07/17 04:12:25;;;;;;;1.20;0.80;;;;;;;;;;5049170;28;20211;-63
2022/07/17 04:14:53;;;;;;;1.40;1.00;;;;;;;;;;5049170;28;20261;-62
2022/07/17 04:17:20;;;;;;;1.27;1.08;;;;;;;;;;5048968;28;20337;-62
2022/07/17 04:19:48;;;;;;;2.50;0.82;;;;;;;;;;5058372;28;20215;-63
2022/07/17 04:22:15;;;;;;;1.40;0.80;;;;;;;;;;5051891;28;20257;-63
2022/07/17 04:24:42;;;;;;;3.00;1.20;;;;;;;;;;5052708;28;20696;-62
2022/07/17 04:27:10;;;;;;;0.90;0.90;;;;;;;;;;5052695;28;20219;-62
2022/07/17 04:29:37;;;;;;;0.68;0.68;;;;;;;;;;5051504;28;20257;-62
2022/07/17 04:32:05;;;;;;;3.15;1.00;;;;;;;;;;5052268;28;20212;-63
2022/07/17 04:34:33;;;;;;;1.42;1.00;;;;;;;;;;5051365;28;20212;-63
2022/07/17 04:37:01;;;;;;;1.02;0.80;;;;;;;;;;5050230;28;20192;-64
2022/07/17 04:39:28;;;;;;;1.05;0.80;;;;;;;;;;5051781;28;20272;-63
2022/07/17 04:41:55;;;;;;;0.70;0.68;;;;;;;;;;5053197;28;20693;-61
2022/07/17 04:44:22;;;;;;;2.03;0.73;;;;;;;;;;5051499;28;20204;-62
2022/07/17 04:46:49;;;;;;;0.73;0.73;;;;;;;;;;5050533;28;20293;-62
2022/07/17 04:49:18;;;;;;;0.77;0.77;;;;;;;;;;5049901;28;20670;-62
2022/07/17 04:51:45;;;;;;;0.88;0.88;;;;;;;;;;5052139;28;20207;-62
2022/07/17 04:54:12;;;;;;;0.80;0.80;;;;;;;;;;5049537;28;20208;-62
2022/07/17 04:56:39;;;;;;;1.70;0.80;;;;;;;;;;5050183;28;20207;-62
2022/07/17 04:59:06;;;;;;;2.50;0.90;;;;;;;;;;5050374;28;20200;-62
2022/07/17 05:01:33;;;;;;;2.97;0.63;;;;;;;;;;5049391;28;20200;-62
2022/07/17 05:04:01;;;;;;;1.00;1.00;;;;;;;;;;5050257;28;20199;-62
2022/07/17 05:06:30;;;;;;;4.45;0.80;;;;;;;;;;5050270;28;20350;-62
2022/07/17 05:08:57;;;;;;;0.68;0.68;;;;;;;;;;5050214;28;20212;-62
2022/07/17 05:11:24;;;;;;;1.10;1.10;;;;;;;;;;5050182;28;20213;-62
2022/07/17 05:13:51;;;;;;;1.85;1.10;;;;;;;;;;5049017;28;20199;-62
2022/07/17 05:16:18;;;;;;;1.75;1.05;;;;;;;;;;5049790;28;20273;-63
2022/07/17 05:18:45;;;;;;;4.90;0.93;;;;;;;;;;5047691;28;20200;-63
2022/07/17 05:21:14;;;;;;;3.38;0.82;;;;;;;;;;5049644;28;20299;-62
2022/07/17 05:23:42;;;;;;;4.95;0.93;;;;;;;;;;5049297;28;20687;-63
2022/07/17 05:26:09;;;;;;;0.95;0.80;;;;;;;;;;5049632;28;20215;-63
2022/07/17 05:28:36;;;;;;;0.85;0.70;;;;;;;;;;5049496;28;20208;-64
2022/07/17 05:31:03;;;;;;;1.42;0.70;;;;;;;;;;5048176;28;20208;-63
2022/07/17 05:33:30;;;;;;;1.08;0.90;;;;;;;;;;5049603;28;20238;-64
2022/07/17 05:35:58;;;;;;;0.77;0.77;;;;;;;;;;5050220;28;20207;-64
2022/07/17 05:38:25;;;;;;;2.15;0.80;;;;;;;;;;5049445;28;20659;-63
2022/07/17 05:40:53;;;;;;;1.00;0.90;;;;;;;;;;5051819;28;20335;-64
2022/07/17 05:43:20;;;;;;;2.67;1.20;;;;;;;;;;5048802;28;20211;-63
2022/07/17 05:45:47;;;;;;;0.80;0.80;;;;;;;;;;5049552;28;20328;-60
2022/07/17 05:48:14;;;;;;;1.00;0.80;;;;;;;;;;5045452;28;20219;-64
2022/07/17 05:50:41;;;;;;;0.60;0.60;;;;;;;;;;5048328;28;20249;-63
2022/07/17 05:53:08;;;;;;;2.67;0.70;;;;;;;;;;5049804;28;20215;-62
2022/07/17 05:55:35;;;;;;;4.82;0.70;;;;;;;;;;5049645;28;20223;-63
2022/07/17 05:58:03;;;;;;;0.95;0.60;;;;;;;;;;5052758;28;20203;-63
2022/07/17 06:00:30;;;;;;;0.73;0.70;;;;;;;;;;5049983;28;20207;-63
2022/07/17 06:02:58;;;;;;;1.55;0.50;;;;;;;;;;5049707;28;20243;-62
2022/07/17 06:05:25;;;;;;;3.85;0.93;;;;;;;;;;5049417;28;20208;-63
2022/07/17 06:07:52;;;;;;;1.92;0.57;;;;;;;;;;5049680;28;20247;-63
2022/07/17 06:10:19;;;;;;;0.75;0.45;;;;;;;;;;5049995;28;20204;-63
2022/07/17 06:12:46;;;;;;;0.40;0.40;;;;;;;;;;5049726;28;20214;-62
2022/07/17 06:15:15;;;;;;;3.40;1.20;;;;;;;;;;5051195;28;20203;-63
2022/07/17 06:17:42;;;;;;;0.80;0.52;;;;;;;;;;5049594;28;20210;-61
2022/07/17 06:20:10;;;;;;;0.80;0.52;;;;;;;;;;5049921;28;20257;-63
2022/07/17 06:22:37;;;;;;;3.60;0.80;;;;;;;;;;5049756;28;20269;-60
2022/07/17 06:25:04;;;;;;;1.02;0.60;;;;;;;;;;5045516;28;20203;-61
2022/07/17 06:27:31;;;;;;;0.52;0.52;;;;;;;;;;5049688;28;20281;-61
2022/07/17 06:29:58;;;;;;;0.98;0.60;;;;;;;;;;5049237;28;20517;-61
2022/07/17 06:32:26;;;;;;;0.98;0.65;;;;;;;;;;5049545;28;20233;-61
2022/07/17 06:34:54;;;;;;;1.30;0.70;;;;;;;;;;5046848;28;20261;-61
2022/07/17 06:37:21;;;;;;;1.85;0.60;;;;;;;;;;5049331;28;20195;-61
2022/07/17 06:39:48;;;;;;;2.67;0.70;;;;;;;;;;5049446;28;20207;-59
2022/07/17 06:42:15;;;;;;;1.33;0.88;;;;;;;;;;5049229;28;20257;-60
2022/07/17 06:44:42;;;;;;;1.20;0.77;;;;;;;;;;5049178;28;20269;-61
2022/07/17 06:47:09;;;;;;;1.65;0.63;;;;;;;;;;5048787;28;20645;-61
2022/07/17 06:49:37;;;;;;;3.13;0.70;;;;;;;;;;5048598;28;20210;-61
2022/07/17 06:52:05;;;;;;;0.52;0.50;;;;;;;;;;5049443;28;20199;-62
2022/07/17 06:54:32;;;;;;;2.58;0.60;;;;;;;;;;5049533;28;20658;-61
2022/07/17 06:56:59;;;;;;;2.75;0.70;;;;;;;;;;5054645;28;20196;-61
2022/07/17 06:59:26;;;;;;;0.85;0.80;;;;;;;;;;5048926;28;20227;-61
2022/07/17 07:01:53;;;;;;;0.68;0.68;;;;;;;;;;5051290;28;20297;-62
2022/07/17 07:04:20;;;;;;;0.63;0.63;;;;;;;;;;5047701;28;20200;-60
2022/07/17 07:06:51;;;;;;;2.60;0.70;;;;;;;;;;5048058;28;20269;-62
2022/07/17 07:09:18;;;;;;;0.85;0.70;;;;;;;;;;5047062;28;20700;-61
2022/07/17 07:11:45;;;;;;;3.50;0.73;;;;;;;;;;5050399;28;20824;-63
2022/07/17 07:14:12;;;;;;;0.95;0.70;;;;;;;;;;5046438;28;20337;-63
2022/07/17 07:16:39;;;;;;;2.40;0.85;;;;;;;;;;5047326;28;20256;-62
2022/07/17 07:19:06;;;;;;;0.77;0.75;;;;;;;;;;5046892;28;20318;-62
2022/07/17 07:21:33;;;;;;;2.03;0.60;;;;;;;;;;5047618;28;20294;-65
2022/07/17 07:24:02;;;;;;;1.08;0.52;;;;;;;;;;5047393;28;20261;-66
2022/07/17 07:26:29;;;;;;;0.60;0.60;;;;;;;;;;5047527;28;20241;-66
2022/07/17 07:28:57;;;;;;;1.95;0.70;;;;;;;;;;5046322;28;20269;-65
2022/07/17 07:31:24;;;;;;;2.45;0.73;;;;;;;;;;5047120;28;20250;-67
2022/07/17 07:33:51;;;;;;;0.50;0.50;;;;;;;;;;5042488;28;20208;-66
2022/07/17 07:36:18;;;;;;;0.80;0.68;;;;;;;;;;5047278;28;20468;-67
2022/07/17 07:38:46;;;;;;;1.13;0.55;;;;;;;;;;5048422;28;20580;-68
2022/07/17 07:41:14;;;;;;;1.50;0.57;;;;;;;;;;5048432;28;20200;-65
2022/07/17 07:43:41;;;;;;;0.75;0.57;;;;;;;;;;5047904;28;20219;-66
2022/07/17 07:46:08;;;;;;;3.60;1.15;;;;;;;;;;5047548;28;20285;-66
2022/07/17 07:48:35;;;;;;;1.55;0.60;;;;;;;;;;5048031;28;20220;-67
2022/07/17 07:51:02;;;;;;;1.65;0.55;;;;;;;;;;5048132;28;20214;-65
2022/07/17 07:53:30;;;;;;;2.95;0.60;;;;;;;;;;5047360;28;20208;-64
2022/07/17 07:55:57;;;;;;;0.98;0.68;;;;;;;;;;5047487;28;20227;-65
2022/07/17 07:58:25;;;;;;;2.88;0.60;;;;;;;;;;5046364;28;20203;-65
2022/07/17 08:00:52;;;;;;;1.48;0.85;;;;;;;;;;5046968;28;20887;-65
2022/07/17 08:03:19;;;;;;;2.80;0.82;;;;;;;;;;5047432;28;20203;-65
2022/07/17 08:05:46;;;;;;;1.42;0.63;;;;;;;;;;5047454;28;20216;-66
2022/07/17 08:08:13;;;;;;;0.80;0.80;;;;;;;;;;5047333;28;20642;-63
2022/07/17 08:10:40;;;;;;;1.60;0.80;;;;;;;;;;5045246;28;20212;-63
2022/07/17 08:13:07;;;;;;;0.63;0.60;;;;;;;;;;5046575;28;20252;-70
2022/07/17 08:15:36;;;;;;;2.05;0.55;;;;;;;;;;5047716;28;20647;-71
2022/07/17 08:18:03;;;;;;;1.98;0.52;;;;;;;;;;5047519;28;20666;-71
2022/07/17 08:20:30;;;;;;;3.00;0.68;;;;;;;;;;5047284;28;20261;-70
2022/07/17 08:22:57;;;;;;;2.30;0.90;;;;;;;;;;5048441;28;20740;-68
2022/07/17 08:25:24;;;;;;;0.77;0.40;;;;;;;;;;5047859;28;20200;-66
2022/07/17 08:27:52;;;;;;;1.88;0.57;;;;;;;;;;5047864;28;20231;-66
2022/07/17 08:30:19;;;;;;;1.73;0.52;;;;;;;;;;5047055;28;20647;-67
2022/07/17 08:32:47;;;;;;;1.75;0.50;;;;;;;;;;5047768;28;20237;-67
2022/07/17 08:35:14;;;;;;;1.38;0.70;;;;;;;;;;5048549;28;20282;-65
2022/07/17 08:37:45;;;;;;;0.52;0.50;;;;;;;;;;5048642;28;20579;-66
2022/07/17 08:40:17;;;;;;;1.35;0.68;;;;;;;;;;5049229;28;20212;-68
2022/07/17 08:42:44;;;;;;;0.63;0.63;;;;;;;;;;5029550;28;20303;-66
2022/07/17 08:45:11;;;;;;;1.65;0.60;;;;;;;;;;5045054;28;20662;-65
2022/07/17 08:47:38;;;;;;;1.85;0.80;;;;;;;;;;5048399;28;20242;-63
2022/07/17 08:50:07;;;;;;;3.20;0.60;;;;;;;;;;5048499;28;20207;-66
2022/07/17 08:52:34;;;;;;;1.15;0.60;;;;;;;;;;5048353;28;20738;-64
2022/07/17 08:55:01;;;;;;;1.33;0.60;;;;;;;;;;5047332;28;20227;-65
2022/07/17 08:57:28;;;;;;;0.55;0.55;;;;;;;;;;5046773;28;20243;-65
2022/07/17 08:59:55;;;;;;;4.57;1.58;;;;;;;;;;5046135;28;20204;-61
2022/07/17 09:02:23;;;;;;;3.95;0.70;;;;;;;;;;5045281;28;20207;-65
2022/07/17 09:04:54;;;;;;;4.00;1.50;;;;;;;;;;5044909;28;20216;-65
2022/07/17 09:07:22;;;;;;;1.55;0.68;;;;;;;;;;5050524;28;20287;-62
2022/07/17 09:09:52;;;;;;;6.28;1.70;;;;;;;;;;5049390;28;20207;-63
2022/07/17 09:12:24;;;;;;;1.83;0.40;;;;;;;;;;5051009;28;20203;-62
2022/07/17 09:14:51;;;;;;;1.30;0.70;;;;;;;;;;5048080;28;20200;-63
2022/07/17 09:17:18;;;;;;;0.50;0.47;;;;;;;;;;5050753;28;20211;-62
2022/07/17 09:19:46;;;;;;;2.22;1.45;;;;;;;;;;5050772;28;20887;-61
2022/07/17 09:22:15;;;;;;;4.40;1.08;;;;;;;;;;5050527;28;20203;-63
2022/07/17 09:24:45;;;;;;;1.50;0.57;;;;;;;;;;5048320;28;20212;-62
2022/07/17 09:27:17;;;;;;;2.33;0.77;;;;;;;;;;5050285;28;20211;-62
2022/07/17 09:29:54;;;;;;;0.60;0.60;;;;;;;;;;5050533;28;20219;-62
2022/07/17 09:32:21;;;;;;;2.25;0.70;;;;;;;;;;5050222;28;20203;-62
2022/07/17 09:34:49;;;;;;;3.40;0.50;;;;;;;;;;5049803;28;20674;-63
2022/07/17 09:37:17;;;;;;;3.08;0.70;;;;;;;;;;5047084;28;20199;-62
2022/07/17 09:39:45;;;;;;;0.80;0.60;;;;;;;;;;5048972;28;20210;-62
2022/07/17 09:42:22;;;;;;;3.47;0.75;;;;;;;;;;5050269;28;20583;-62
2022/07/17 09:44:55;;;;;;;1.05;0.60;;;;;;;;;;5050139;28;20212;-62
2022/07/17 09:47:23;;;;;;;0.45;0.45;;;;;;;;;;5050065;28;20308;-63
2022/07/17 09:49:50;;;;;;;1.13;0.63;;;;;;;;;;5049564;28;20239;-63
2022/07/17 09:52:17;;;;;;;1.75;0.70;;;;;;;;;;5050009;28;20203;-62
2022/07/17 09:54:46;;;;;;;1.40;0.68;;;;;;;;;;5049720;28;20226;-63
2022/07/17 09:57:13;;;;;;;2.58;0.60;;;;;;;;;;5049468;28;20203;-63
2022/07/17 09:59:41;;;;;;;0.70;0.70;;;;;;;;;;5050471;28;20207;-63
2022/07/17 10:02:08;;;;;;;1.02;0.60;;;;;;;;;;5050391;28;20265;-63
2022/07/17 10:04:35;;;;;;;0.50;0.50;;;;;;;;;;5046830;28;20206;-63
2022/07/17 10:07:02;;;;;;;1.70;0.70;;;;;;;;;;5049956;28;20673;-63
2022/07/17 10:09:30;;;;;;;2.50;0.68;;;;;;;;;;5048882;28;20315;-63
2022/07/17 10:11:58;;;;;;;4.88;0.70;;;;;;;;;;5049587;28;20203;-63
2022/07/17 10:14:26;;;;;;;0.55;0.55;;;;;;;;;;5049541;28;20826;-62
2022/07/17 10:16:53;;;;;;;5.68;0.60;;;;;;;;;;5048719;28;20553;-63
2022/07/17 10:19:20;;;;;;;1.67;0.60;;;;;;;;;;5048335;28;20223;-63
2022/07/17 10:21:56;;;;;;;1.60;0.60;;;;;;;;;;5049479;28;20204;-62
2022/07/17 10:24:23;;;;;;;0.77;0.77;;;;;;;;;;5047841;28;20218;-63
2022/07/17 10:26:50;;;;;;;0.60;0.57;;;;;;;;;;5049034;28;20212;-63
2022/07/17 10:29:32;;;;;;;1.17;0.73;;;;;;;;;;5048429;28;20219;-63
2022/07/17 10:32:00;;;;;;;1.23;0.70;;;;;;;;;;5049570;28;20199;-63
2022/07/17 10:34:41;;;;;;;0.43;0.43;;;;;;;;;;5048489;28;20315;-63
2022/07/17 10:37:18;;;;;;;1.75;0.70;;;;;;;;;;5047938;28;20200;-63
2022/07/17 10:40:05;;;;;;;0.73;0.70;;;;;;;;;;5047506;28;20278;-63
2022/07/17 10:42:39;;;;;;;0.82;0.70;;;;;;;;;;5048624;28;20507;-63
2022/07/17 10:45:08;;;;;;;0.80;0.80;;;;;;;;;;5049010;28;20200;-64
2022/07/17 10:47:44;;;;;;;0.50;0.50;;;;;;;;;;5048147;28;20238;-63
2022/07/17 10:50:12;;;;;;;1.38;0.60;;;;;;;;;;5047804;28;20219;-63
2022/07/17 10:52:40;;;;;;;2.47;0.60;;;;;;;;;;5040560;28;20203;-63
2022/07/17 10:55:07;;;;;;;1.02;0.70;;;;;;;;;;5046259;28;20310;-63
2022/07/17 10:57:34;;;;;;;1.25;0.60;;;;;;;;;;5046196;28;20203;-63
2022/07/17 11:00:01;;;;;;;0.73;0.70;;;;;;;;;;5049077;28;20304;-64
2022/07/17 11:02:30;;;;;;;1.02;0.80;;;;;;;;;;5048616;28;20203;-63
2022/07/17 11:05:06;;;;;;;0.43;0.43;;;;;;;;;;5048116;28;20258;-63
2022/07/17 11:07:33;;;;;;;0.55;0.47;;;;;;;;;;5045072;28;20685;-63
2022/07/17 11:10:00;;;;;;;2.25;0.70;;;;;;;;;;5047471;28;20227;-63
2022/07/17 11:12:31;;;;;;;0.65;0.60;;;;;;;;;;5047697;28;20215;-63
2022/07/17 11:15:02;;;;;;;1.05;0.60;;;;;;;;;;5047589;28;20286;-63
2022/07/17 11:17:30;;;;;;;0.55;0.43;;;;;;;;;;5047131;28;20227;-62
2022/07/17 11:19:59;;;;;;;0.63;0.63;;;;;;;;;;5047378;28;20754;-64
2022/07/17 11:22:27;;;;;;;1.55;0.50;;;;;;;;;;5046594;28;20211;-64
2022/07/17 11:24:54;;;;;;;0.43;0.43;;;;;;;;;;5047197;28;20738;-63
2022/07/17 11:27:23;;;;;;;1.15;0.65;;;;;;;;;;5046669;28;20208;-63
2022/07/17 11:29:51;;;;;;;1.08;0.63;;;;;;;;;;5047995;28;20228;-63
2022/07/17 11:32:18;;;;;;;0.70;0.70;;;;;;;;;;5047872;28;20199;-63
2022/07/17 11:34:46;;;;;;;0.75;0.70;;;;;;;;;;5047850;28;20239;-63
2022/07/17 11:37:13;;;;;;;1.52;0.70;;;;;;;;;;5048004;28;20204;-63
2022/07/17 11:39:41;;;;;;;2.17;0.82;;;;;;;;;;5048368;28;20195;-63
2022/07/17 11:42:09;;;;;;;1.10;0.80;;;;;;;;;;5048439;28;20241;-62
2022/07/17 11:44:36;;;;;;;0.98;0.73;;;;;;;;;;5047677;28;20220;-62
2022/07/17 11:47:04;;;;;;;2.72;0.73;;;;;;;;;;5053359;28;20246;-62
2022/07/17 11:49:32;;;;;;;1.95;0.50;;;;;;;;;;5049358;28;20292;-62
2022/07/17 11:52:01;;;;;;;0.77;0.77;;;;;;;;;;5047730;28;20211;-62
2022/07/17 11:54:29;;;;;;;0.85;0.40;;;;;;;;;;5043961;28;20227;-62
2022/07/17 11:56:57;;;;;;;1.05;0.70;;;;;;;;;;5048409;28;20200;-62
2022/07/17 11:59:25;;;;;;;0.85;0.65;;;;;;;;;;5048251;28;20373;-62
2022/07/17 12:01:53;;;;;;;1.00;0.80;;;;;;;;;;5048538;28;20298;-62
2022/07/17 12:04:20;;;;;;;0.55;0.55;;;;;;;;;;5049299;28;20260;-62
2022/07/17 12:06:47;;;;;;;0.50;0.50;;;;;;;;;;5048189;28;20215;-63
2022/07/17 12:09:15;;;;;;;0.75;0.75;;;;;;;;;;5048179;28;20216;-62
2022/07/17 12:11:50;;;;;;;0.63;0.57;;;;;;;;;;5050434;28;20211;-63
2022/07/17 12:14:17;;;;;;;0.77;0.60;;;;;;;;;;5048292;28;20215;-63
2022/07/17 12:16:45;;;;;;;0.70;0.60;;;;;;;;;;5047877;28;20203;-63
2022/07/17 12:19:15;;;;;;;1.67;0.63;;;;;;;;;;5048134;28;20294;-63
2022/07/17 12:21:50;;;;;;;1.00;0.70;;;;;;;;;;5048111;28;20670;-67
2022/07/17 12:24:22;;;;;;;0.60;0.60;;;;;;;;;;5038698;28;20333;-63
2022/07/17 12:26:49;;;;;;;2.80;0.70;;;;;;;;;;5058838;28;20684;-63
2022/07/17 12:29:16;;;;;;;0.73;0.50;;;;;;;;;;5048448;28;20231;-63
2022/07/17 12:31:43;;;;;;;0.50;0.50;;;;;;;;;;5048131;28;20215;-63
2022/07/17 12:34:10;;;;;;;3.22;0.60;;;;;;;;;;5047785;28;20207;-64
2022/07/17 12:36:37;;;;;;;0.77;0.50;;;;;;;;;;5048023;28;20632;-64
2022/07/17 12:39:05;;;;;;;1.63;0.47;;;;;;;;;;5049421;28;20202;-63
2022/07/17 12:41:33;;;;;;;1.05;0.60;;;;;;;;;;5051725;28;20215;-63
2022/07/17 12:44:00;;;;;;;1.02;0.70;;;;;;;;;;5050649;28;20670;-64
2022/07/17 12:46:27;;;;;;;2.22;0.50;;;;;;;;;;5050983;28;20248;-63
2022/07/17 12:48:54;;;;;;;0.85;0.82;;;;;;;;;;5051235;28;20227;-63
2022/07/17 12:51:21;;;;;;;1.83;1.67;;;;;;;;;;5051971;28;20212;-62
2022/07/17 12:53:49;;;;;;;0.65;0.52;;;;;;;;;;5055769;28;20214;-63
2022/07/17 12:56:16;;;;;;;0.70;0.70;;;;;;;;;;5068018;28;20796;-63
2022/07/17 12:58:44;;;;;;;1.08;0.65;;;;;;;;;;5055663;28;20294;-63
2022/07/17 13:01:11;;;;;;;0.63;0.50;;;;;;;;;;5066057;28;20203;-62
2022/07/17 13:03:38;;;;;;;4.43;0.60;;;;;;;;;;5051722;28;20203;-62
2022/07/17 13:06:05;;;;;;;0.57;0.52;;;;;;;;;;5051268;28;20218;-62
2022/07/17 13:08:33;;;;;;;0.77;0.47;;;;;;;;;;5051187;28;20204;-62
2022/07/17 13:11:00;;;;;;;1.85;0.75;;;;;;;;;;5046676;28;20191;-62
2022/07/17 13:13:28;;;;;;;0.60;0.60;;;;;;;;;;5051492;28;20208;-62
2022/07/17 13:15:56;;;;;;;0.60;0.52;;;;;;;;;;5051361;28;20247;-61
2022/07/17 13:18:23;;;;;;;0.50;0.50;;;;;;;;;;5051430;28;20227;-62
2022/07/17 13:20:50;;;;;;;0.50;0.50;;;;;;;;;;5050563;28;20246;-62
2022/07/17 13:23:17;;;;;;;1.02;0.88;;;;;;;;;;5050562;28;20212;-62
2022/07/17 13:25:44;;;;;;;0.45;0.45;;;;;;;;;;5050003;28;20215;-62
2022/07/17 13:28:12;;;;;;;0.50;0.50;;;;;;;;;;5051105;28;20208;-63
2022/07/17 13:30:39;;;;;;;2.78;0.60;;;;;;;;;;5047541;28;20223;-62
2022/07/17 13:33:07;;;;;;;1.90;0.68;;;;;;;;;;5050591;28;20207;-62
2022/07/17 13:35:35;;;;;;;0.75;0.70;;;;;;;;;;5050142;28;20812;-62
2022/07/17 13:38:03;;;;;;;0.80;0.63;;;;;;;;;;5050882;28;20207;-62
2022/07/17 13:40:30;;;;;;;0.60;0.60;;;;;;;;;;5050567;28;20199;-62
2022/07/17 13:42:57;;;;;;;1.05;0.50;;;;;;;;;;5050505;28;20774;-61
2022/07/17 13:45:24;;;;;;;1.67;1.08;;;;;;;;;;5048861;28;20684;-63
2022/07/17 13:47:52;;;;;;;3.70;0.60;;;;;;;;;;5051226;28;20203;-64
2022/07/17 13:50:20;;;;;;;0.63;0.60;;;;;;;;;;5041243;28;20223;-65
2022/07/17 13:52:48;;;;;;;1.27;0.85;;;;;;;;;;5046092;28;20208;-64
2022/07/17 13:55:16;;;;;;;1.17;0.70;;;;;;;;;;5045746;28;20304;-64
2022/07/17 13:57:43;;;;;;;1.85;0.80;;;;;;;;;;5045960;28;20575;-64
2022/07/17 14:00:10;;;;;;;0.80;0.57;;;;;;;;;;5046441;28;20682;-63
2022/07/17 14:02:38;;;;;;;3.70;0.80;;;;;;;;;;5046341;28;20235;-64
2022/07/17 14:05:06;;;;;;;1.95;0.60;;;;;;;;;;5048178;28;20681;-63
2022/07/17 14:07:35;;;;;;;0.52;0.52;;;;;;;;;;5045072;28;20261;-62
2022/07/17 14:10:02;;;;;;;1.17;0.65;;;;;;;;;;5044457;28;20726;-61
2022/07/17 14:12:29;;;;;;;0.80;0.70;;;;;;;;;;5044666;28;20293;-63
2022/07/17 14:14:56;;;;;;;0.50;0.50;;;;;;;;;;5046003;28;20659;-62
2022/07/17 14:17:23;;;;;;;0.63;0.63;;;;;;;;;;5046922;28;20211;-65
2022/07/17 14:19:50;;;;;;;0.82;0.60;;;;;;;;;;5045316;28;20207;-63
2022/07/17 14:22:17;;;;;;;1.42;0.80;;;;;;;;;;5045362;28;20207;-63
2022/07/17 14:24:46;;;;;;;0.40;0.40;;;;;;;;;;5045579;28;20207;-62
2022/07/17 14:27:13;;;;;;;1.13;0.60;;;;;;;;;;5045369;28;20246;-63
2022/07/17 14:29:40;;;;;;;2.03;0.60;;;;;;;;;;5045927;28;20717;-62
2022/07/17 14:32:07;;;;;;;1.23;0.63;;;;;;;;;;5045774;28;20223;-64
2022/07/17 14:34:35;;;;;;;0.65;0.65;;;;;;;;;;5044408;28;20207;-63
2022/07/17 14:37:06;;;;;;;0.40;0.40;;;;;;;;;;5045176;28;20216;-63
2022/07/17 14:39:33;;;;;;;1.45;0.50;;;;;;;;;;5045843;28;20314;-63
2022/07/17 14:42:01;;;;;;;0.68;0.68;;;;;;;;;;5045541;28;20208;-63
2022/07/17 14:44:30;;;;;;;0.47;0.47;;;;;;;;;;5045072;28;20204;-63
2022/07/17 14:46:57;;;;;;;0.60;0.60;;;;;;;;;;5045074;28;20250;-65